Share

McKenzie, AL (36456)

Red Level (KALREDLE4) Elev 371 ft | 31.37 °N, 86.62 °W | Change Station
Active Advisory: Areal Flood Advisory

Current weather conditions updated 5 minutes ago

Rain
Rain Mist
55.9 °F
Feels Like 55.9 °F
N
1.0
Wind Variable Wind from SE
Gusts 6.0 mph
Sunrise 6:15 AM
Sunset 7:17 PM
Moon Waning Gibbous

Today is forecast to be Much Cooler than yesterday. Rain, heavy at times.

Pressure 30.14 in
Visibility 4.0 miles
Clouds Overcast 900 ft
Dew Point 55 °F
Humidity 98%
Rainfall 2.23 in
Snow Depth Not available.
UV 2 out of 16
Pollen 6.10 out of 12
Air Quality Not available.
Flu Activity Sporadic
METAR KGZH 181453Z AUTO 02009G15KT 4SM RA BR OVC009 14/12 A3014 RMK AO2 CIG 006V012 SLP205 P0008 60027 T01390122 51004

More Conditions Fewer Conditions

Pressure 30.14 in
Visibility 4.0 miles
Clouds Overcast 900 ft
Dew Point 55 °F
Humidity 98%
Rainfall 2.23 in
Snow Depth Not available.
UV 2 out of 16
Pollen 6.10 out of 12
Air Quality Not available.
Flu Activity Sporadic
METAR KGZH 181453Z AUTO 02009G15KT 4SM RA BR OVC009 14/12 A3014 RMK AO2 CIG 006V012 SLP205 P0008 60027 T01390122 51004

More Conditions Fewer Conditions

10-Day Forecast

Almanac

Astronomy

Apr. 18, 2014 Rise Set
Actual Time 6:15 AM CDT 7:17 PM CDT
Civil Twilight 5:50 AM CDT 7:43 PM CDT
Nautical Twilight 5:20 AM CDT 8:12 PM CDT
Astronomical Twilight 4:49 AM CDT 8:43 PM CDT
Moon 10:54 PM CDT 8:44 AM CDT
Length of Visible Light 13h 52m
Length of Day
13h 02m
Tomorrow will be 1m 47s longer.
Waning Gibbous, 87% of the Moon is Illuminated
Today
Waning Gibbous
Apr 22
Last Quarter
Apr 29
New
May 6
First Quarter
May 14
Full

Today's Extremes

State Highs State Lows

Community

  • What's for Lunch?
    What's for Lunch?
  • SUNRISE THROUGH THE TREES.
    SUNRISE THROUGH THE TREES.
  • Dog Wood Blossoms
    Dog Wood Blossoms
  • Morning Light
    Morning Light
  • New Day
    New Day

WunderPhotos

Upload Photos

1,702,383 photos uploaded!

Nearby

Snow Depth

Station Depth Elevation
No new snow has been reported.

Coastal Water Temperatures

Place Temperature
No Stations Reporting

Earthquake Activity

City Distance Mag. Time & Date
No recent earthquake activity has been reported nearby.
Minimum magnitude displayed is 2.5.

Nearby Weather Stations

Station Location Temp. Dew Point Humidity Wind Precip. Elev Updated Type
Red Level, Red Level, AL 55.9 °F 55 °F 98% SE  at  1.0 mph 0.13 in / hr 371 ft 9:54 AM CDT Normal

Show More Stations Show Fewer Stations

What do you think?

We're not finished. Please let us know what you like, what you don't like, and what you are still missing.